Latest Weather Observations for Oakey

IDQ60801

Issued at 11:32 am EST Friday 24 November 2017 (issued every 30 minutes, with the page automatically refreshed every 10 minutes)

About weather observations | Map of weather stations | Latest weather observations for QLD | Other Formats
Station Details ID: 041359 Name: OAKEY AERO Lat: -27.40 Lon: 151.74 Height: 405.69 m
Data from the previous 72 hours. | See also: Recent months at Oakey
Date/Time
EST
Temp
°C
App
Temp
°C
Dew
Point
°C
Rel
Hum
%
Delta-T
°C
Wind Press
QNH
hPa
Press
MSL
hPa
Rain since
9am
mm
Dir  Spd
km/h
Gust
km/h
Spd
kts
Gust
kts
24/11:00am 26.2 24.3 10.4 37 9.0 NE 11 17 6 9 1016.6 1014.8 0.0
24/10:30am 26.1 24.4 11.1 39 8.6 ESE 11 22 6 12 1016.9 1015.1 0.0
24/10:00am 25.6 24.4 11.7 42 8.0 S 9 17 5 9 1017.3 1015.5 0.0
24/09:30am 24.3 21.9 12.6 48 6.8 E 17 24 9 13 1017.5 1015.7 0.0
24/09:00am 23.5 22.1 13.4 53 6.0 ESE 13 24 7 13 1017.8 1016.0 0.0
24/08:30am 22.6 20.3 13.1 55 5.6 ENE 17 22 9 12 1018.0 1016.2 0.0
24/08:00am 22.0 20.6 14.4 62 4.5 E 15 22 8 12 1017.9 1016.1 0.0
24/07:30am 21.0 18.9 15.1 69 3.5 ENE 20 28 11 15 1017.9 1016.1 0.0
24/07:00am 19.8 17.7 14.6 72 3.1 E 19 24 10 13 1017.7 1015.9 0.0
24/06:30am 18.5 17.8 15.4 82 1.9 E 13 19 7 10 1017.4 1015.6 0.0
24/06:00am 16.5 16.6 15.4 93 0.7 ENE 9 13 5 7 1017.3 1015.5 0.0
24/05:30am 14.0 13.4 13.5 97 0.3 E 9 11 5 6 1017.2 1015.4 0.0
24/05:00am 13.1 11.8 12.5 96 0.3 ESE 11 13 6 7 1017.1 1015.3 0.0
24/04:30am 14.0 13.7 13.4 96 0.3 E 7 9 4 5 1016.8 1015.0 0.0
24/04:00am 14.9 15.9 14.3 96 0.3 SE 2 7 1 4 1016.5 1014.7 0.0
24/03:50am 14.7 15.9 13.9 95 0.5 CALM 0 0 0 0 1016.4 1014.6 0.0
24/03:37am 14.4 15.1 13.3 93 0.6 E 2 6 1 3 1016.3 1014.5 0.0
24/03:30am 14.0 13.7 12.7 92 0.7 E 6 7 3 4 1016.3 1014.5 0.0
24/03:00am 15.0 14.4 13.5 91 0.9 E 9 11 5 6 1016.2 1014.4 0.0
24/02:30am 15.2 15.2 13.6 90 0.9 ENE 6 9 3 5 1016.1 1014.2 0.0
24/02:00am 15.8 14.7 14.2 90 0.9 E 13 19 7 10 1016.2 1014.4 0.0
24/01:30am 16.0 14.9 14.4 90 0.9 ENE 13 19 7 10 1016.4 1014.6 0.0
24/01:00am 15.8 14.5 13.6 87 1.3 E 13 15 7 8 1016.5 1014.7 0.0
24/12:30am 16.3 15.5 14.0 86 1.3 ENE 11 17 6 9 1016.7 1014.9 0.0
24/12:00am 16.8 14.3 14.1 84 1.6 ENE 20 28 11 15 1017.0 1015.2 0.0
 
Date/Time
EST
Temp
°C
App
Temp
°C
Dew
Point
°C
Rel
Hum
%
Delta-T
°C
Wind Press
QNH
hPa
Press
MSL
hPa
Rain since
9am
mm
Dir  Spd
km/h
Gust
km/h
Spd
kts
Gust
kts
23/11:30pm 17.0 14.7 14.1 83 1.7 E 19 24 10 13 1017.2 1015.4 0.0
23/11:00pm 17.2 14.8 13.7 80 2.0 ENE 19 26 10 14 1017.3 1015.5 0.0
23/10:30pm 17.7 15.2 14.0 79 2.2 E 20 26 11 14 1017.2 1015.4 0.0
23/10:00pm 18.2 16.3 14.1 77 2.4 ENE 17 24 9 13 1017.3 1015.5 0.0
23/09:30pm 18.5 16.2 14.2 76 2.5 ENE 19 24 10 13 1017.3 1015.5 0.0
23/09:00pm 19.1 16.8 14.6 75 2.7 ENE 20 30 11 16 1017.0 1015.2 0.0
23/08:30pm 19.6 16.5 14.6 73 3.0 ENE 24 32 13 17 1016.8 1015.0 0.0
23/08:00pm 20.3 18.0 14.7 70 3.3 NE 20 30 11 16 1016.4 1014.6 0.0
23/07:30pm 20.9 17.8 14.5 67 3.8 ENE 24 30 13 16 1016.0 1014.1 0.0
23/07:00pm 21.8 18.6 13.2 58 5.0 E 22 28 12 15 1015.4 1013.6 0.0
23/06:30pm 22.5 18.5 13.0 55 5.6 ENE 26 32 14 17 1015.0 1013.2 0.0
23/06:00pm 23.4 19.3 12.7 51 6.2 ENE 26 32 14 17 1014.8 1013.0 0.0
23/05:30pm 24.0 19.3 12.0 47 6.9 ENE 28 35 15 19 1014.4 1012.6 0.0
23/05:00pm 25.7 20.9 11.5 41 8.2 ENE 28 35 15 19 1014.0 1012.2 0.0
23/04:30pm 25.4 21.2 9.7 37 8.8 ENE 22 30 12 16 1013.8 1011.9 0.0
23/04:00pm 26.5 22.6 9.4 34 9.6 ESE 20 30 11 16 1013.7 1011.8 0.0
23/03:30pm 25.6 22.4 9.8 37 8.9 E 17 28 9 15 1013.9 1012.0 0.0
23/03:00pm 25.8 22.4 9.2 35 9.2 E 17 28 9 15 1013.9 1012.0 0.0
23/02:30pm 26.8 23.1 9.6 34 9.7 ESE 19 30 10 16 1014.1 1012.3 0.0
23/02:00pm 26.3 23.0 9.6 35 9.4 E 17 24 9 13 1014.5 1012.7 0.0
23/01:30pm 27.1 24.8 10.3 35 9.6 ESE 13 26 7 14 1015.0 1013.2 0.0
23/01:00pm 26.9 24.3 10.6 36 9.3 NE 15 35 8 19 1015.1 1013.3 0.0
23/12:30pm 25.9 22.4 10.1 37 8.9 NE 19 26 10 14 1015.4 1013.6 0.0
23/12:00pm 24.5 21.9 9.3 38 8.4 SE 13 22 7 12 1016.0 1014.1 0.0
23/11:30am 24.8 21.3 8.7 36 8.8 ENE 17 26 9 14 1016.5 1014.7 0.0
23/11:00am 24.6 21.6 9.3 38 8.5 ESE 15 26 8 14 1016.9 1015.1 0.0
23/10:30am 23.4 19.9 10.1 43 7.4 ENE 19 33 10 18 1017.2 1015.4 0.0
23/10:00am 23.4 19.8 11.8 48 6.7 E 22 33 12 18 1017.4 1015.6 0.0
23/09:30am 22.8 19.3 12.1 51 6.2 ESE 22 35 12 19 1017.4 1015.6 0.0
23/09:00am 21.3 17.4 12.2 56 5.2 E 24 33 13 18 1017.5 1015.7 0.0
23/08:30am 21.8 18.1 12.6 56 5.3 E 24 32 13 17 1017.5 1015.7 0.0
23/08:00am 20.2 16.0 12.4 61 4.5 ENE 26 35 14 19 1017.5 1015.7 0.0
23/07:30am 19.8 16.0 13.5 67 3.7 E 26 33 14 18 1017.4 1015.6 0.0
23/07:00am 18.8 15.2 13.2 70 3.2 E 24 30 13 16 1017.2 1015.4 0.0
23/06:30am 17.8 15.2 13.1 74 2.7 E 19 24 10 13 1016.8 1015.0 0.0
23/06:00am 15.9 15.1 12.8 82 1.7 E 9 11 5 6 1016.6 1014.8 0.0
23/05:30am 14.1 13.7 12.3 89 1.0 ESE 6 7 3 4 1016.4 1014.6 0.0
23/05:00am 13.7 13.3 12.4 92 0.7 SE 6 7 3 4 1016.1 1014.2 0.0
23/04:30am 13.3 12.6 12.0 92 0.7 E 7 9 4 5 1015.8 1013.9 0.0
23/04:00am 13.6 14.3 12.3 92 0.7 CALM 0 0 0 0 1015.7 1013.8 0.0
23/03:30am 13.2 13.8 11.8 91 0.8 CALM 0 0 0 0 1015.3 1013.5 0.0
23/03:00am 13.6 12.5 11.8 89 1.0 E 9 11 5 6 1015.4 1013.6 0.0
23/02:30am 14.1 12.4 12.3 89 1.0 ESE 13 17 7 9 1015.3 1013.5 0.0
23/02:00am 14.5 12.9 12.9 90 0.9 ESE 13 17 7 9 1015.3 1013.5 0.0
23/01:30am 14.4 12.4 12.6 89 1.0 ESE 15 19 8 10 1015.6 1013.7 0.0
23/01:00am 14.8 13.2 12.7 87 1.2 SE 13 17 7 9 1015.8 1013.9 0.0
23/12:30am 15.4 13.9 13.1 86 1.3 ESE 13 19 7 10 1016.1 1014.2 0.0
23/12:00am 15.3 14.0 12.6 84 1.5 E 11 15 6 8 1016.3 1014.5 0.0
 
Date/Time
EST
Temp
°C
App
Temp
°C
Dew
Point
°C
Rel
Hum
%
Delta-T
°C
Wind Press
QNH
hPa
Press
MSL
hPa
Rain since
9am
mm
Dir  Spd
km/h
Gust
km/h
Spd
kts
Gust
kts
22/11:30pm 16.2 13.9 13.1 82 1.8 E 17 26 9 14 1016.6 1014.8 0.0
22/11:00pm 16.2 13.9 13.1 82 1.8 E 17 19 9 10 1016.7 1014.9 0.0
22/10:30pm 15.8 13.9 13.1 84 1.5 ESE 15 19 8 10 1017.1 1015.3 0.0
22/10:00pm 15.7 14.3 12.3 80 1.9 ENE 11 15 6 8 1017.2 1015.4 0.0
22/09:30pm 15.9 14.2 12.3 79 2.0 E 13 19 7 10 1017.0 1015.2 0.0
22/09:00pm 16.4 15.2 12.9 80 2.0 E 11 17 6 9 1016.9 1015.1 0.0
22/08:30pm 16.3 15.2 13.2 82 1.8 E 11 17 6 9 1016.7 1014.9 0.0
22/08:00pm 16.8 14.3 13.5 81 1.9 E 19 22 10 12 1016.5 1014.7 0.0
22/07:30pm 16.9 15.1 13.4 80 2.0 ENE 15 24 8 13 1016.2 1014.4 0.0
22/07:00pm 16.9 14.4 12.2 74 2.6 E 17 22 9 12 1016.5 1014.7 0.0
22/06:30pm 17.0 10.0 11.1 68 3.2 E 39 50 21 27 1016.3 1014.5 0.0
22/06:00pm 18.6 12.6 12.1 66 3.7 ESE 35 50 19 27 1016.4 1014.6 0.0
22/05:30pm 21.0 16.3 11.9 56 5.2 ENE 28 35 15 19 1015.6 1013.7 0.0
22/05:00pm 22.2 16.1 11.9 52 5.9 ENE 35 44 19 24 1014.9 1013.1 0.0
22/04:30pm 23.7 18.6 9.3 40 7.9 E 26 33 14 18 1014.9 1013.1 0.0
22/04:00pm 23.1 17.3 9.5 42 7.5 ENE 30 39 16 21 1014.8 1013.0 0.0
22/03:30pm 23.5 18.3 8.8 39 8.0 E 26 35 14 19 1014.6 1012.8 0.0
22/03:00pm 24.1 18.5 8.9 38 8.3 ENE 28 35 15 19 1014.6 1012.8 0.0
22/02:30pm 24.9 18.9 8.8 36 8.9 E 30 39 16 21 1014.8 1013.0 0.0
22/02:00pm 24.0 18.9 7.6 35 8.8 ESE 24 46 13 25 1015.1 1013.3 0.0
22/01:30pm 24.6 20.3 9.3 38 8.5 ESE 22 35 12 19 1015.4 1013.6 0.0
22/01:00pm 24.2 19.6 8.2 36 8.7 SE 22 33 12 18 1015.8 1013.9 0.0
22/12:30pm 24.9 20.5 8.8 36 8.9 E 22 33 12 18 1016.2 1014.4 0.0
22/12:00pm 24.6 20.6 9.0 37 8.6 E 20 33 11 18 1016.5 1014.7 0.0
22/11:30am 24.6 20.9 10.1 40 8.1 ESE 20 35 11 19 1016.9 1015.1 0.0
22/11:00am 23.3 18.7 9.7 42 7.5 ESE 24 43 13 23 1017.3 1015.5 0.0
22/10:30am 22.5 17.8 9.3 43 7.2 E 24 35 13 19 1017.5 1015.7 0.0
22/10:00am 22.4 17.1 9.9 45 6.9 E 28 39 15 21 1017.8 1016.0 0.0
22/09:30am 22.0 17.0 11.1 50 6.1 E 28 37 15 20 1018.2 1016.3 0.0
22/09:00am 20.2 15.5 11.9 59 4.7 E 28 37 15 20 1018.2 1016.3 0.0
22/08:30am 20.2 14.9 11.4 57 4.9 E 30 39 16 21 1018.3 1016.4 0.0
22/08:00am 19.6 14.3 12.4 63 4.1 ESE 32 43 17 23 1018.3 1016.4 0.0
22/07:30am 18.5 13.0 12.0 66 3.7 E 32 39 17 21 1018.5 1016.7 0.0
22/07:00am 18.2 13.4 11.7 66 3.6 ESE 28 33 15 18 1018.0 1016.2 0.0
22/06:30am 16.9 12.7 11.2 69 3.1 ESE 24 30 13 16 1017.7 1015.9 0.0
22/06:00am 16.3 13.2 11.5 73 2.6 ESE 19 24 10 13 1017.4 1015.6 0.0
22/05:30am 14.8 11.9 11.0 78 2.1 E 17 22 9 12 1017.0 1015.2 0.0
22/05:00am 14.2 10.9 10.8 80 1.8 E 19 24 10 13 1016.9 1015.1 0.0
22/04:30am 14.4 11.4 10.8 79 1.9 ESE 17 22 9 12 1016.9 1015.1 0.0
22/04:00am 14.5 10.6 10.7 78 2.0 E 22 28 12 15 1016.7 1014.9 0.0
22/03:30am 14.6 10.1 10.2 75 2.3 E 24 33 13 18 1016.4 1014.6 0.0
22/03:00am 15.1 10.7 10.5 74 2.5 ESE 24 30 13 16 1016.7 1014.9 0.0
22/02:30am 15.2 10.9 10.8 75 2.4 ESE 24 32 13 17 1016.7 1014.9 0.0
22/02:00am 15.1 10.7 10.5 74 2.5 ESE 24 32 13 17 1016.7 1014.9 0.0
22/01:30am 15.2 10.8 10.4 73 2.6 ESE 24 30 13 16 1017.0 1015.2 0.0
22/01:00am 15.2 11.1 10.2 72 2.7 ESE 22 28 12 15 1017.2 1015.4 0.0
22/12:30am 15.2 10.6 9.8 70 2.9 ESE 24 32 13 17 1017.5 1015.7 0.0
22/12:00am 15.3 10.8 9.9 70 2.9 ESE 24 30 13 16 1017.8 1016.0 0.0
 
Date/Time
EST
Temp
°C
App
Temp
°C
Dew
Point
°C
Rel
Hum
%
Delta-T
°C
Wind Press
QNH
hPa
Press
MSL
hPa
Rain since
9am
mm
Dir  Spd
km/h
Gust
km/h
Spd
kts
Gust
kts
21/11:30pm 15.4 11.6 9.7 69 3.0 E 20 26 11 14 1018.3 1016.4 0.0
21/11:00pm 15.9 11.8 10.0 68 3.1 E 22 30 12 16 1018.5 1016.7 0.0
21/10:30pm 16.0 12.0 10.5 70 3.0 E 22 30 12 16 1018.6 1016.8 0.0
21/10:00pm 16.7 12.5 11.2 70 3.0 ESE 24 32 13 17 1018.7 1016.9 0.0
21/09:30pm 17.0 12.5 12.5 75 2.5 ESE 28 35 15 19 1018.9 1017.1 0.0
21/09:00pm 17.5 12.6 12.4 72 2.9 ESE 30 37 16 20 1018.9 1017.1 0.0
21/08:30pm 17.8 13.3 12.7 72 2.9 E 28 33 15 18 1018.9 1017.1 0.0
21/08:00pm 18.1 14.9 13.2 73 2.8 E 22 28 12 15 1018.8 1017.0 0.0
21/07:30pm 18.1 14.5 13.0 72 2.9 E 24 32 13 17 1018.6 1016.8 0.0
21/07:00pm 18.3 13.9 13.0 71 3.0 E 28 33 15 18 1018.4 1016.6 0.0
21/06:30pm 18.5 14.8 12.7 69 3.3 E 24 32 13 17 1018.6 1016.8 0.0
21/06:00pm 18.6 13.9 12.1 66 3.7 E 28 33 15 18 1018.6 1016.8 0.0
21/05:30pm 19.0 13.9 13.0 68 3.4 E 32 37 17 20 1018.2 1016.3 0.0
21/05:00pm 19.2 12.6 12.7 66 3.7 ESE 39 50 21 27 1017.8 1016.0 0.0
21/04:30pm 20.4 12.7 12.1 59 4.7 E 44 56 24 30 1017.3 1015.5 0.0
21/04:00pm 21.5 15.3 12.6 57 5.1 E 37 48 20 26 1016.8 1015.0 0.0
21/03:30pm 22.5 14.1 12.4 52 5.8 ESE 48 61 26 33 1016.8 1015.0 0.0
21/03:13pm 25.4 18.9 8.8 35 9.2 ESE 33 54 18 29 1016.6 1014.8 0.0
21/03:00pm 25.4 19.6 9.3 36 8.9 E 30 41 16 22 1016.7 1014.9 0.0
21/02:30pm 24.4 18.7 8.4 36 8.7 E 28 37 15 20 1016.8 1015.0 0.0
21/02:00pm 24.8 19.3 9.1 37 8.7 ESE 28 37 15 20 1017.2 1015.4 0.0
21/01:30pm 25.3 19.5 9.6 37 8.8 E 30 41 16 22 1017.4 1015.6 0.0
21/01:00pm 24.5 19.7 8.9 37 8.6 E 24 35 13 19 1018.0 1016.2 0.0
21/12:30pm 25.4 20.7 9.3 36 9.0 E 24 37 13 20 1018.6 1016.8 0.0
21/12:00pm 24.9 19.2 8.4 35 9.0 E 28 41 15 22 1019.0 1017.2 0.0

Other Formats:

Comma delimited format used in spreadsheet applications
http://www.bom.gov.au/fwo/IDQ60801/IDQ60801.94552.axf

JavaScript Object Notation format (JSON) in row-major order
http://www.bom.gov.au/fwo/IDQ60801/IDQ60801.94552.json